Terminal Aerodrome Forecast
Issued by NWS

Home | Current Version | Previous Version | Text Only | Print | Product List | Glossary On
Versions: 1 2 3 4 5 6 7 8 9 10 11 12 13 14 15 16 17 18 19 20 21 22
000
FTUS45 KGJT 161736
TAFASE
TAF
KASE 161736Z 1618/1718 01005KT P6SM BKN100
     FM161900 34008G16KT P6SM VCSH SCT040 OVC060
     FM170200 23005KT P6SM SCT060 BKN150
     FM170700 21003KT P6SM SCT200
     FM171500 VRB03KT P6SM SKC=

USA.gov is the U.S. government's official web portal to all federal, state and local government web resources and services.